createdAt,value
2022-08-07T00:00:25.982Z,12.34
2022-08-07T00:02:53.964Z,12.36
2022-08-07T00:05:23.716Z,12.34
2022-08-07T00:07:58.202Z,12.17
2022-08-07T00:10:29.834Z,12.34
2022-08-07T00:13:09.611Z,12.50
2022-08-07T00:15:50.985Z,12.39
2022-08-07T00:18:24.500Z,12.29
2022-08-07T00:20:53.215Z,12.18
2022-08-07T00:23:21.443Z,11.98
2022-08-07T00:25:59.050Z,11.87
2022-08-07T00:28:33.416Z,11.79
2022-08-07T00:31:05.734Z,11.59
2022-08-07T00:33:34.894Z,12.03
2022-08-07T00:36:03.174Z,12.11
2022-08-07T00:38:33.222Z,12.01
2022-08-07T00:41:01.267Z,12.09
2022-08-07T00:44:01.990Z,12.10
2022-08-07T00:46:18.011Z,12.03
2022-08-07T00:48:45.644Z,11.78
2022-08-07T00:51:18.036Z,11.56
2022-08-07T00:53:50.615Z,11.51
2022-08-07T00:56:23.095Z,11.79
2022-08-07T00:58:59.375Z,12.00
2022-08-07T01:01:27.191Z,11.94
2022-08-07T01:04:00.392Z,11.74
2022-08-07T01:06:28.349Z,11.94
2022-08-07T01:08:58.691Z,11.74
2022-08-07T01:12:23.969Z,11.83
2022-08-07T01:14:21.361Z,11.76
2022-08-07T01:16:57.233Z,11.99
2022-08-07T01:19:25.827Z,11.94
2022-08-07T01:21:55.843Z,11.80
2022-08-07T01:24:23.747Z,12.06
2022-08-07T01:26:52.811Z,12.07
2022-08-07T01:29:22.064Z,12.06
2022-08-07T01:31:49.967Z,11.82
2022-08-07T01:34:18.873Z,11.54
2022-08-07T01:36:52.700Z,11.33
2022-08-07T01:39:39.577Z,11.68
2022-08-07T01:42:38.292Z,11.31
2022-08-07T01:45:03.726Z,11.21
2022-08-07T01:48:19.248Z,11.25
2022-08-07T01:50:28.530Z,10.96
2022-08-07T01:52:58.997Z,10.88
2022-08-07T01:55:30.762Z,11.11
2022-08-07T01:58:06.605Z,11.15
2022-08-07T02:00:52.827Z,10.80
2022-08-07T02:03:49.194Z,10.68
2022-08-07T02:06:31.763Z,10.90
2022-08-07T02:09:04.399Z,11.12
2022-08-07T02:12:03.572Z,11.04
2022-08-07T02:14:36.291Z,10.74
2022-08-07T02:17:08.258Z,10.56
2022-08-07T02:20:07.155Z,10.54
2022-08-07T02:22:27.838Z,10.60
2022-08-07T02:24:57.265Z,10.55
2022-08-07T02:27:34.800Z,10.53
2022-08-07T02:30:07.115Z,10.52
2022-08-07T02:32:38.659Z,10.74
2022-08-07T02:36:28.755Z,10.78
2022-08-07T02:38:14.311Z,10.75
2022-08-07T02:40:44.482Z,10.95
2022-08-07T02:43:15.901Z,10.76
2022-08-07T02:45:59.177Z,10.74
2022-08-07T02:48:30.191Z,10.99
2022-08-07T02:51:00.379Z,11.32
2022-08-07T02:53:38.704Z,11.31
2022-08-07T02:56:17.559Z,11.19
2022-08-07T02:58:51.199Z,11.01
2022-08-07T03:01:35.058Z,10.79
2022-08-07T03:04:07.684Z,11.17
2022-08-07T03:06:41.200Z,11.04
2022-08-07T03:09:11.495Z,11.17
2022-08-07T03:11:52.483Z,11.18
2022-08-07T03:14:27.887Z,10.80
2022-08-07T03:16:56.349Z,10.65
2022-08-07T03:19:24.572Z,10.45
2022-08-07T03:21:56.915Z,10.51
2022-08-07T03:24:27.750Z,10.47
2022-08-07T03:26:58.950Z,10.31
2022-08-07T03:29:29.531Z,10.54
2022-08-07T03:31:57.660Z,10.40
2022-08-07T03:34:28.193Z,10.34
2022-08-07T03:36:57.297Z,10.48
2022-08-07T03:39:46.266Z,10.34
2022-08-07T03:42:15.622Z,10.20
2022-08-07T03:44:53.146Z,10.15
2022-08-07T03:47:22.685Z,10.23
2022-08-07T03:49:52.348Z,10.38
2022-08-07T03:52:26.162Z,10.35
2022-08-07T03:54:57.166Z,10.41
2022-08-07T03:58:35.419Z,10.33
2022-08-07T04:00:18.489Z,10.35
2022-08-07T04:02:49.432Z,10.52
2022-08-07T04:05:17.228Z,10.35
2022-08-07T04:07:46.821Z,10.46
2022-08-07T04:10:19.345Z,10.53
2022-08-07T04:12:47.691Z,10.65
2022-08-07T04:15:17.052Z,10.67
2022-08-07T04:18:57.368Z,10.79
2022-08-07T04:20:35.335Z,10.79
2022-08-07T04:23:06.220Z,10.90
2022-08-07T04:25:35.927Z,10.62
2022-08-07T04:28:08.092Z,10.52
2022-08-07T04:30:43.349Z,10.48
2022-08-07T04:33:15.400Z,10.48
2022-08-07T04:35:50.413Z,10.56
2022-08-07T04:38:19.923Z,10.59
2022-08-07T04:40:52.907Z,10.61
2022-08-07T04:43:53.423Z,10.69
2022-08-07T04:46:26.094Z,10.93
2022-08-07T04:49:07.518Z,11.22
2022-08-07T04:51:50.972Z,11.16
2022-08-07T04:54:30.265Z,11.19
2022-08-07T04:58:24.302Z,11.34
2022-08-07T05:00:12.729Z,11.56
2022-08-07T05:02:50.246Z,12.00
2022-08-07T05:05:53.911Z,12.31
2022-08-07T05:08:16.723Z,12.72
2022-08-07T05:10:46.984Z,13.07
2022-08-07T05:14:53.823Z,13.19
2022-08-07T05:16:07.742Z,13.63
2022-08-07T05:18:37.780Z,13.89
2022-08-07T05:21:09.800Z,14.01
2022-08-07T05:23:40.076Z,14.38
2022-08-07T05:26:18.758Z,14.39
2022-08-07T05:28:53.685Z,14.29
2022-08-07T05:31:24.451Z,13.95
2022-08-07T05:34:05.844Z,13.75
2022-08-07T05:36:40.303Z,14.28
2022-08-07T05:40:06.571Z,16.25
2022-08-07T05:42:02.472Z,19.25
2022-08-07T05:44:32.132Z,20.56
2022-08-07T05:47:01.117Z,21.89
2022-08-07T05:49:37.173Z,23.25
2022-08-07T05:52:11.755Z,22.86
2022-08-07T05:54:44.099Z,22.40
2022-08-07T05:57:21.900Z,21.99
2022-08-07T05:59:57.916Z,22.42
2022-08-07T06:02:29.709Z,20.66
2022-08-07T06:05:03.552Z,22.70
2022-08-07T06:08:14.135Z,22.17
2022-08-07T06:10:19.674Z,23.58
2022-08-07T06:12:47.917Z,24.12
2022-08-07T06:15:19.877Z,24.59
2022-08-07T06:17:53.902Z,25.58
2022-08-07T06:20:31.811Z,25.63
2022-08-07T06:23:02.291Z,25.29
2022-08-07T06:25:54.306Z,25.19
2022-08-07T06:28:28.070Z,24.75
2022-08-07T06:30:58.113Z,24.32
2022-08-07T06:33:26.413Z,24.30
2022-08-07T06:36:06.667Z,25.00
2022-08-07T06:38:58.892Z,25.43
2022-08-07T06:42:01.226Z,24.89
2022-08-07T06:44:21.364Z,25.56
2022-08-07T06:46:53.298Z,24.67
2022-08-07T06:49:28.028Z,25.59
2022-08-07T06:52:02.813Z,23.35
2022-08-07T06:55:31.346Z,22.44
2022-08-07T06:57:39.352Z,23.77
2022-08-07T07:00:17.755Z,25.36
2022-08-07T07:02:54.444Z,24.53
2022-08-07T07:06:03.164Z,21.35
2022-08-07T07:08:18.464Z,19.94
2022-08-07T07:10:56.529Z,18.77
2022-08-07T07:13:56.130Z,18.93
2022-08-07T07:16:20.168Z,18.63
2022-08-07T07:18:51.386Z,18.56
2022-08-07T07:21:21.982Z,18.17
2022-08-07T07:24:09.336Z,17.71
2022-08-07T07:26:40.653Z,18.38
2022-08-07T07:29:40.716Z,18.02
2022-08-07T07:32:01.661Z,18.14
2022-08-07T07:34:32.119Z,18.08
2022-08-07T07:37:05.405Z,18.20
2022-08-07T07:39:55.120Z,18.29
2022-08-07T07:42:32.408Z,18.45
2022-08-07T07:45:02.531Z,18.33
2022-08-07T07:47:52.052Z,18.43
2022-08-07T07:50:34.754Z,18.57
2022-08-07T07:53:20.249Z,18.53
2022-08-07T07:56:00.604Z,18.64
2022-08-07T07:58:31.133Z,18.80
2022-08-07T08:02:01.528Z,18.86
2022-08-07T08:04:06.507Z,18.86
2022-08-07T08:06:40.656Z,19.06
2022-08-07T08:09:22.922Z,18.97
2022-08-07T08:12:02.389Z,18.70
2022-08-07T08:14:34.237Z,18.78
2022-08-07T08:17:32.382Z,18.96
2022-08-07T08:20:17.523Z,19.18
2022-08-07T08:23:01.833Z,18.92
2022-08-07T08:25:50.251Z,18.92
2022-08-07T08:28:23.893Z,18.86
2022-08-07T08:31:07.499Z,18.97
2022-08-07T08:33:46.975Z,19.39
2022-08-07T08:36:25.450Z,19.19
2022-08-07T08:38:59.872Z,19.37
2022-08-07T08:41:57.882Z,19.60
2022-08-07T08:44:29.553Z,19.18
2022-08-07T08:47:24.959Z,18.79
2022-08-07T08:50:04.491Z,18.97
2022-08-07T08:52:36.289Z,19.67
2022-08-07T08:55:21.264Z,19.89
2022-08-07T08:58:08.683Z,19.14
2022-08-07T09:00:48.618Z,19.65
2022-08-07T09:03:49.877Z,19.87
2022-08-07T09:06:26.467Z,20.29
2022-08-07T09:08:57.903Z,20.41
2022-08-07T09:11:50.612Z,20.55
2022-08-07T09:14:33.979Z,20.91
2022-08-07T09:17:08.480Z,20.77
2022-08-07T09:19:53.265Z,21.12
2022-08-07T09:24:32.926Z,20.31
2022-08-07T09:25:37.609Z,20.59
2022-08-07T09:29:24.498Z,20.96
2022-08-07T09:31:01.004Z,21.41
2022-08-07T09:33:57.988Z,21.85
2022-08-07T09:36:35.429Z,21.66
2022-08-07T09:39:18.242Z,22.03
2022-08-07T09:42:05.841Z,20.91
2022-08-07T09:45:03.417Z,20.66
2022-08-07T09:47:57.829Z,21.28
2022-08-07T09:50:37.523Z,20.61
2022-08-07T09:53:12.655Z,20.98
2022-08-07T09:56:03.816Z,21.27
2022-08-07T09:58:58.887Z,21.15
2022-08-07T10:01:52.147Z,21.03
2022-08-07T10:04:54.992Z,20.89
2022-08-07T10:07:52.767Z,21.28
2022-08-07T10:10:30.227Z,22.11
2022-08-07T10:13:55.134Z,22.62
2022-08-07T10:16:10.973Z,22.40
2022-08-07T10:19:03.380Z,21.38
2022-08-07T10:22:14.005Z,21.36
2022-08-07T10:24:57.899Z,22.22
2022-08-07T10:27:47.134Z,22.11
2022-08-07T10:30:18.855Z,22.35
2022-08-07T10:32:59.667Z,22.35
2022-08-07T10:35:55.547Z,22.06
2022-08-07T10:38:35.653Z,22.62
2022-08-07T10:41:51.839Z,22.47
2022-08-07T10:44:08.919Z,22.90
2022-08-07T10:46:42.851Z,23.10
2022-08-07T10:49:16.010Z,23.43
2022-08-07T10:52:12.992Z,23.73
2022-08-07T10:54:53.523Z,23.30
2022-08-07T10:57:37.108Z,23.22
2022-08-07T11:00:08.849Z,22.65
2022-08-07T11:02:41.401Z,22.95
2022-08-07T11:05:49.245Z,22.98
2022-08-07T11:08:30.181Z,22.88
2022-08-07T11:11:02.857Z,22.96
2022-08-07T11:14:42.310Z,23.32
2022-08-07T11:16:30.523Z,24.07
2022-08-07T11:19:05.182Z,23.45
2022-08-07T11:21:40.729Z,23.69
2022-08-07T11:24:14.451Z,23.61
2022-08-07T11:26:50.202Z,23.67
2022-08-07T11:29:41.915Z,22.20
2022-08-07T11:32:13.476Z,22.88
2022-08-07T11:34:47.656Z,23.39
2022-08-07T11:37:38.724Z,23.39
2022-08-07T11:40:23.023Z,23.68
2022-08-07T11:43:09.230Z,24.03
2022-08-07T11:46:06.879Z,23.58
2022-08-07T11:49:50.016Z,22.78
2022-08-07T11:52:00.662Z,23.36
2022-08-07T11:54:46.393Z,24.47
2022-08-07T11:57:26.039Z,24.88
2022-08-07T12:00:19.151Z,24.50
2022-08-07T12:03:44.713Z,24.55
2022-08-07T12:06:36.503Z,24.60
2022-08-07T12:09:07.637Z,24.48
2022-08-07T12:11:43.380Z,23.77
2022-08-07T12:14:27.209Z,23.88
2022-08-07T12:16:57.562Z,23.63
2022-08-07T12:19:35.668Z,23.56
2022-08-07T12:22:39.593Z,23.40
2022-08-07T12:26:05.431Z,22.70
2022-08-07T12:28:31.490Z,23.04
2022-08-07T12:31:04.769Z,23.59
2022-08-07T12:33:56.418Z,23.40
2022-08-07T12:36:32.988Z,23.97
2022-08-07T12:39:42.916Z,23.55
2022-08-07T12:41:53.312Z,23.58
2022-08-07T12:44:22.210Z,23.34
2022-08-07T12:47:10.936Z,23.61
2022-08-07T12:49:48.835Z,24.35
2022-08-07T12:52:33.986Z,24.20
2022-08-07T12:55:09.464Z,24.91
2022-08-07T12:58:00.233Z,24.64
2022-08-07T13:00:35.775Z,24.29
2022-08-07T13:03:54.953Z,24.13
2022-08-07T13:06:21.651Z,23.84
2022-08-07T13:09:02.275Z,23.75
2022-08-07T13:12:02.087Z,23.23
2022-08-07T13:14:37.943Z,23.51
2022-08-07T13:17:41.172Z,23.87
2022-08-07T13:20:16.894Z,23.63
2022-08-07T13:22:53.316Z,23.82
2022-08-07T13:25:29.621Z,23.59
2022-08-07T13:28:10.706Z,23.88
2022-08-07T13:30:49.025Z,23.76
2022-08-07T13:34:30.827Z,23.73
2022-08-07T13:36:22.207Z,23.47
2022-08-07T13:39:01.288Z,23.67
2022-08-07T13:41:41.355Z,23.96
2022-08-07T13:44:10.438Z,23.86
2022-08-07T13:46:49.653Z,23.85
2022-08-07T13:50:33.121Z,23.47
2022-08-07T13:52:31.589Z,23.78
2022-08-07T13:54:56.771Z,23.72
2022-08-07T13:57:37.662Z,22.91
2022-08-07T14:00:26.455Z,22.47
2022-08-07T14:02:57.604Z,22.23
2022-08-07T14:05:37.359Z,22.06
2022-08-07T14:08:08.666Z,22.09
2022-08-07T14:10:42.071Z,22.18
2022-08-07T14:13:16.342Z,22.33
2022-08-07T14:15:50.464Z,22.16
2022-08-07T14:18:29.827Z,22.08
2022-08-07T14:21:08.094Z,22.21
2022-08-07T14:24:00.654Z,22.29
2022-08-07T14:26:34.261Z,22.49
2022-08-07T14:30:03.039Z,22.47
2022-08-07T14:31:56.633Z,22.70
2022-08-07T14:34:30.082Z,22.63
2022-08-07T14:37:01.839Z,22.77
2022-08-07T14:40:16.470Z,22.91
2022-08-07T14:42:24.565Z,23.06
2022-08-07T14:44:59.943Z,23.20
2022-08-07T14:47:42.817Z,23.14
2022-08-07T14:50:18.568Z,22.92
2022-08-07T14:52:50.197Z,22.35
2022-08-07T14:55:18.697Z,22.32
2022-08-07T14:57:58.517Z,22.25
2022-08-07T15:00:31.172Z,22.11
2022-08-07T15:02:59.974Z,22.05
2022-08-07T15:05:30.256Z,22.27
2022-08-07T15:07:59.094Z,22.49
2022-08-07T15:10:30.123Z,22.68
2022-08-07T15:13:06.488Z,22.73
2022-08-07T15:15:42.848Z,22.87
2022-08-07T15:18:14.473Z,23.09
2022-08-07T15:22:51.864Z,22.86
2022-08-07T15:25:25.615Z,22.97
2022-08-07T15:28:34.639Z,22.66
2022-08-07T15:30:59.591Z,22.76
2022-08-07T15:33:42.680Z,22.96
2022-08-07T15:36:11.181Z,22.55
2022-08-07T15:38:58.612Z,22.40
2022-08-07T15:42:46.848Z,22.57
2022-08-07T15:44:20.207Z,22.68
2022-08-07T15:46:52.639Z,23.00
2022-08-07T15:50:05.449Z,22.99
2022-08-07T15:52:17.045Z,22.91
2022-08-07T15:54:51.434Z,23.06
2022-08-07T15:57:39.419Z,22.91
2022-08-07T16:00:31.749Z,22.90
2022-08-07T16:02:58.703Z,22.87
2022-08-07T16:05:30.994Z,22.77
2022-08-07T16:08:31.178Z,22.75
2022-08-07T16:10:58.239Z,22.91
2022-08-07T16:13:58.733Z,23.02
2022-08-07T16:16:48.372Z,22.75
2022-08-07T16:19:42.464Z,22.58
2022-08-07T16:22:55.218Z,22.54
2022-08-07T16:25:54.916Z,22.58
2022-08-07T16:30:06.768Z,22.61
2022-08-07T16:31:57.631Z,22.56
2022-08-07T16:34:34.498Z,22.71
2022-08-07T16:38:04.006Z,22.75
2022-08-07T16:40:34.583Z,22.64
2022-08-07T16:43:11.666Z,22.63
2022-08-07T16:47:04.671Z,22.56
2022-08-07T16:50:20.026Z,22.35
2022-08-07T16:52:51.207Z,22.31
2022-08-07T16:55:27.375Z,22.21
2022-08-07T16:58:23.038Z,22.43
2022-08-07T17:01:15.920Z,22.45
2022-08-07T17:04:00.012Z,22.19
2022-08-07T17:06:45.790Z,22.21
2022-08-07T17:10:07.791Z,22.14
2022-08-07T17:12:34.159Z,22.23
2022-08-07T17:15:05.089Z,22.23
2022-08-07T17:17:46.968Z,22.18
2022-08-07T17:20:21.452Z,22.08
2022-08-07T17:22:57.586Z,21.80
2022-08-07T17:25:47.695Z,21.70
2022-08-07T17:28:19.541Z,21.62
2022-08-07T17:30:58.647Z,21.58
2022-08-07T17:34:09.473Z,21.67
2022-08-07T17:36:21.691Z,21.65
2022-08-07T17:39:00.489Z,21.59
2022-08-07T17:42:04.014Z,21.42
2022-08-07T17:44:41.262Z,21.41
2022-08-07T17:47:16.640Z,21.33
2022-08-07T17:49:52.728Z,21.31
2022-08-07T17:52:30.726Z,21.19
2022-08-07T17:55:05.943Z,21.17
2022-08-07T17:57:58.540Z,21.14
2022-08-07T18:00:34.139Z,21.04
2022-08-07T18:03:19.679Z,20.92
2022-08-07T18:06:02.125Z,20.91
2022-08-07T18:08:34.037Z,20.83
2022-08-07T18:12:07.064Z,20.76
2022-08-07T18:14:01.553Z,20.78
2022-08-07T18:16:34.945Z,20.89
2022-08-07T18:21:07.143Z,21.01
2022-08-07T18:22:07.420Z,21.26
2022-08-07T18:24:44.166Z,21.15
2022-08-07T18:27:38.850Z,20.87
2022-08-07T18:30:31.749Z,20.81
2022-08-07T18:33:32.896Z,20.70
2022-08-07T18:36:08.010Z,20.53
2022-08-07T18:38:56.079Z,20.35
2022-08-07T18:41:44.978Z,20.30
2022-08-07T18:44:26.814Z,20.19
2022-08-07T18:47:00.680Z,20.00
2022-08-07T18:50:29.987Z,19.89
2022-08-07T18:52:54.324Z,19.79
2022-08-07T18:55:43.476Z,19.75
2022-08-07T18:58:34.723Z,19.56
2022-08-07T19:01:06.876Z,19.39
2022-08-07T19:03:44.223Z,19.20
2022-08-07T19:06:20.590Z,19.10
2022-08-07T19:09:09.370Z,19.05
2022-08-07T19:12:05.452Z,18.84
2022-08-07T19:14:53.907Z,18.68
2022-08-07T19:17:59.401Z,18.49
2022-08-07T19:20:29.586Z,18.24
2022-08-07T19:23:17.939Z,18.13
2022-08-07T19:26:21.631Z,18.11
2022-08-07T19:30:55.584Z,18.05
2022-08-07T19:32:03.441Z,17.97
2022-08-07T19:34:34.261Z,17.28
2022-08-07T19:37:10.034Z,16.87
2022-08-07T19:39:57.211Z,16.77
2022-08-07T19:42:30.789Z,16.95
2022-08-07T19:45:08.566Z,17.15
2022-08-07T19:47:42.174Z,16.97
2022-08-07T19:50:44.414Z,16.78
2022-08-07T19:53:01.157Z,16.49
2022-08-07T19:55:57.308Z,16.43
2022-08-07T19:58:28.905Z,16.35
2022-08-07T20:00:58.549Z,16.44
2022-08-07T20:03:35.670Z,16.21
2022-08-07T20:06:05.350Z,16.28
2022-08-07T20:08:34.872Z,16.08
2022-08-07T20:11:10.321Z,16.07
2022-08-07T20:13:42.294Z,16.06
2022-08-07T20:16:32.275Z,16.33
2022-08-07T20:19:05.320Z,16.38
2022-08-07T20:21:41.962Z,16.42
2022-08-07T20:24:17.803Z,16.39
2022-08-07T20:26:50.150Z,16.48
2022-08-07T20:29:48.701Z,16.52
2022-08-07T20:32:22.832Z,16.35
2022-08-07T20:34:55.374Z,16.38
2022-08-07T20:37:25.278Z,16.54
2022-08-07T20:40:03.961Z,16.47
2022-08-07T20:42:33.651Z,16.30
2022-08-07T20:45:04.483Z,16.38
2022-08-07T20:47:55.434Z,16.36
2022-08-07T20:50:26.951Z,16.32
2022-08-07T20:52:54.949Z,16.30
2022-08-07T20:55:24.527Z,16.23
2022-08-07T20:58:02.587Z,16.23
2022-08-07T21:00:33.751Z,16.17
2022-08-07T21:03:03.118Z,16.10
2022-08-07T21:05:42.932Z,16.07
2022-08-07T21:08:36.431Z,15.97
2022-08-07T21:11:11.986Z,15.83
2022-08-07T21:14:29.432Z,15.80
2022-08-07T21:16:56.343Z,15.74
2022-08-07T21:19:32.214Z,15.70
2022-08-07T21:22:19.274Z,15.70
2022-08-07T21:24:55.740Z,15.77
2022-08-07T21:27:39.617Z,15.71
2022-08-07T21:30:10.043Z,15.69
2022-08-07T21:32:49.475Z,15.61
2022-08-07T21:35:34.565Z,15.41
2022-08-07T21:38:18.620Z,15.45
2022-08-07T21:41:00.008Z,15.47
2022-08-07T21:43:47.528Z,15.41
2022-08-07T21:46:31.823Z,15.40
2022-08-07T21:49:04.875Z,15.12
2022-08-07T21:51:55.626Z,15.36
2022-08-07T21:54:29.102Z,15.13
2022-08-07T21:57:30.788Z,15.17
2022-08-07T22:00:06.260Z,14.84
2022-08-07T22:02:41.139Z,14.67
2022-08-07T22:05:21.586Z,14.72
2022-08-07T22:07:59.435Z,14.75
2022-08-07T22:10:32.786Z,14.50
2022-08-07T22:13:05.871Z,14.78
2022-08-07T22:16:41.926Z,14.82
2022-08-07T22:18:34.658Z,14.82
2022-08-07T22:21:11.438Z,14.96
2022-08-07T22:23:45.391Z,14.92
2022-08-07T22:26:14.724Z,14.94
2022-08-07T22:28:52.914Z,14.87
2022-08-07T22:31:45.152Z,14.90
2022-08-07T22:34:29.141Z,14.93
2022-08-07T22:37:09.415Z,14.88
2022-08-07T22:39:52.432Z,14.96
2022-08-07T22:42:25.863Z,14.93
2022-08-07T22:44:58.815Z,14.78
2022-08-07T22:47:37.523Z,14.48
2022-08-07T22:50:29.050Z,14.62
2022-08-07T22:54:08.171Z,14.69
2022-08-07T22:56:28.750Z,14.17
2022-08-07T22:59:32.668Z,14.06
2022-08-07T23:02:05.559Z,14.04
2022-08-07T23:04:57.720Z,14.07
2022-08-07T23:07:44.979Z,14.42
2022-08-07T23:10:37.941Z,14.55
2022-08-07T23:13:29.518Z,14.28
2022-08-07T23:16:46.841Z,14.36
2022-08-07T23:19:48.254Z,14.13
2022-08-07T23:22:27.586Z,14.13
2022-08-07T23:25:07.315Z,13.89
2022-08-07T23:28:22.772Z,14.20
2022-08-07T23:31:05.659Z,14.23
2022-08-07T23:34:33.671Z,14.22
2022-08-07T23:36:43.388Z,14.08
2022-08-07T23:39:22.166Z,14.16
2022-08-07T23:42:04.766Z,13.94
2022-08-07T23:44:48.920Z,13.76
2022-08-07T23:47:46.591Z,13.81
2022-08-07T23:50:30.217Z,13.64
2022-08-07T23:53:17.043Z,13.72
2022-08-07T23:56:02.456Z,13.45
2022-08-07T23:58:42.362Z,13.33
